createdAt,value
2022-11-23T00:02:07.729Z,1.97
2022-11-23T00:11:43.138Z,1.47
2022-11-23T00:21:19.572Z,2.03
2022-11-23T00:31:00.324Z,2.6
2022-11-23T00:40:35.274Z,1.95
2022-11-23T00:50:11.237Z,1.58
2022-11-23T00:59:48.361Z,1.94
2022-11-23T01:09:25.862Z,1.71
2022-11-23T01:19:03.271Z,2.01
2022-11-23T01:28:39.560Z,2.3
2022-11-23T01:38:18.296Z,2.44
2022-11-23T01:47:53.687Z,2.72
2022-11-23T01:57:30.715Z,2.68
2022-11-23T02:07:07.773Z,2.7
2022-11-23T02:16:44.691Z,2.81
2022-11-23T02:26:21.390Z,2.75
2022-11-23T02:35:58.344Z,2.86
2022-11-23T02:45:35.446Z,3.07
2022-11-23T02:55:12.412Z,2.81
2022-11-23T03:04:48.678Z,2.23
2022-11-23T03:14:25.436Z,2.5
2022-11-23T03:24:02.013Z,2.42
2022-11-23T03:33:38.845Z,2.57
2022-11-23T03:43:15.699Z,2.97
2022-11-23T03:52:52.769Z,2.84
2022-11-23T04:02:29.147Z,2.92
2022-11-23T04:12:05.948Z,2.28
2022-11-23T04:21:41.846Z,1.69
2022-11-23T04:31:18.234Z,2.14
2022-11-23T04:40:54.971Z,2.37
2022-11-23T04:50:32.012Z,2.24
2022-11-23T05:00:07.644Z,1.21
2022-11-23T05:09:43.025Z,1.58
2022-11-23T05:19:19.722Z,1.44
2022-11-23T05:28:56.473Z,1.28
2022-11-23T05:38:33.608Z,1.94
2022-11-23T05:48:11.119Z,2.52
2022-11-23T05:57:48.694Z,3.05
2022-11-23T06:07:25.992Z,3.26
2022-11-23T06:17:02.791Z,3.22
2022-11-23T06:26:39.103Z,3.15
2022-11-23T06:36:15.723Z,3.22
2022-11-23T06:45:52.343Z,3.02
2022-11-23T06:55:29.266Z,3.14
2022-11-23T07:05:08.117Z,2.9
2022-11-23T07:14:43.582Z,3.01
2022-11-23T07:24:20.620Z,3.16
2022-11-23T07:33:57.853Z,3.45
2022-11-23T07:43:35.823Z,3.76
2022-11-23T07:53:12.734Z,3.62
2022-11-23T08:03:11.732Z,3.77
2022-11-23T08:12:27.629Z,3.85
2022-11-23T08:22:04.846Z,3.99
2022-11-23T08:31:41.642Z,4.21
2022-11-23T08:41:19.157Z,4.46
2022-11-23T08:50:56.549Z,4.76
2022-11-23T09:00:33.928Z,4.89
2022-11-23T09:10:16.672Z,5.19
2022-11-23T09:19:49.271Z,5.4
2022-11-23T09:29:27.274Z,5.51
2022-11-23T09:39:05.431Z,5.85
2022-11-23T09:48:43.742Z,6.34
2022-11-23T09:58:21.807Z,6.73
2022-11-23T10:08:00.795Z,7.23
2022-11-23T10:17:39.345Z,7.75
2022-11-23T10:27:17.200Z,8.06
2022-11-23T10:36:55.326Z,8.35
2022-11-23T10:46:33.871Z,8.47
2022-11-23T10:56:11.617Z,8.52
2022-11-23T11:06:14.382Z,8.58
2022-11-23T11:15:26.737Z,9.13
2022-11-23T11:25:06.565Z,9
2022-11-23T11:34:43.002Z,9.08
2022-11-23T11:44:20.440Z,8.82
2022-11-23T11:53:57.413Z,9.17
2022-11-23T12:03:37.898Z,9.38
2022-11-23T12:13:14.788Z,9.46
2022-11-23T12:22:52.140Z,9.14
2022-11-23T12:32:27.876Z,9.13
2022-11-23T12:42:05.632Z,10.02
2022-11-23T12:51:45.029Z,8.99
2022-11-23T13:01:34.289Z,9.66
2022-11-23T13:11:08.057Z,9.68
2022-11-23T13:20:46.787Z,9.26
2022-11-23T13:30:45.924Z,9.7
2022-11-23T13:40:16.438Z,9.54
2022-11-23T13:49:59.605Z,10.49
2022-11-23T13:59:39.563Z,10.53
2022-11-23T14:08:59.033Z,9.94
2022-11-23T14:18:30.510Z,8.89
2022-11-23T14:28:03.380Z,8.48
2022-11-23T14:37:37.602Z,7.82
2022-11-23T14:47:12.343Z,7.27
2022-11-23T14:56:48.307Z,6.72
2022-11-23T15:06:23.071Z,6.31
2022-11-23T15:15:58.600Z,5.96
2022-11-23T15:25:34.184Z,5.61
2022-11-23T15:35:10.053Z,5.1
2022-11-23T15:44:49.175Z,4.38
2022-11-23T15:54:22.415Z,4.11
2022-11-23T16:03:58.630Z,4.12
2022-11-23T16:13:34.937Z,3.51
2022-11-23T16:23:11.263Z,3.29
2022-11-23T16:32:47.597Z,3.17
2022-11-23T16:42:23.623Z,2.77
2022-11-23T16:52:00.247Z,2.89
2022-11-23T17:01:36.633Z,2.92
2022-11-23T17:11:13.418Z,2.72
2022-11-23T17:20:49.742Z,3.07
2022-11-23T17:30:26.561Z,2.78
2022-11-23T17:40:02.820Z,2.52
2022-11-23T17:49:39.079Z,2.53
2022-11-23T17:59:15.241Z,2.65
2022-11-23T18:08:51.464Z,1.88
2022-11-23T18:18:27.472Z,2.4
2022-11-23T18:28:04.080Z,2.42
2022-11-23T18:37:40.768Z,1.81
2022-11-23T18:47:16.576Z,1.54
2022-11-23T18:56:53.485Z,1.42
2022-11-23T19:06:29.588Z,1.8
2022-11-23T19:16:06.548Z,1.99
2022-11-23T19:25:42.828Z,1.89
2022-11-23T19:35:19.482Z,1.71
2022-11-23T19:44:56.547Z,1.75
2022-11-23T19:54:32.821Z,1.44
2022-11-23T20:04:10.008Z,1.47
2022-11-23T20:13:45.395Z,1.34
2022-11-23T20:23:21.914Z,1.28
2022-11-23T20:42:34.963Z,1.31
2022-11-23T20:52:11.463Z,1.35
2022-11-23T21:01:47.983Z,1.19
2022-11-23T21:11:25.084Z,1.49
2022-11-23T21:21:01.710Z,1.57
2022-11-23T21:30:38.880Z,1.53
2022-11-23T21:40:14.401Z,1.48
2022-11-23T21:49:51.351Z,1.39
2022-11-23T21:59:27.915Z,1.31
2022-11-23T22:09:04.848Z,1.3
2022-11-23T22:18:41.580Z,1.54
2022-11-23T22:28:18.682Z,1.33
2022-11-23T22:37:55.248Z,1.41
2022-11-23T22:47:32.521Z,1.42
2022-11-23T22:57:09.321Z,1.29
2022-11-23T23:06:45.950Z,1.23
2022-11-23T23:16:22.705Z,1.32
2022-11-23T23:25:59.807Z,1.28
2022-11-23T23:35:36.477Z,1.37
2022-11-23T23:45:13.323Z,1.6
2022-11-23T23:54:50.358Z,1.73
